Time;durP1;ratioP1;P1;durP2;ratioP2;P2;SDS_P1;SDS_P2;PMS_P1;PMS_P2;Temp;Humidity;BMP_temperature;BMP_pressure;BME280_temperature;BME280_humidity;BME280_pressure;Samples;Min_cycle;Max_cycle;Signal;HPM_P1;HPM_P2
2020/12/18 00:02:11;;;;;;;24.27;11.13;;;;;;;6.15;83.44;102886.44;1656882;86;21751;-82
2020/12/18 00:04:46;;;;;;;35.13;14.63;;;;;;;6.11;83.57;102892.50;1631554;88;21349;-81
2020/12/18 00:07:23;;;;;;;27.37;12.60;;;;;;;6.10;83.75;102890.24;1658782;86;21351;-83
2020/12/18 00:09:55;;;;;;;27.05;12.28;;;;;;;6.14;83.94;102893.00;1628880;88;21226;-82
2020/12/18 00:12:30;;;;;;;27.70;12.10;;;;;;;6.19;83.97;102891.08;1656989;86;21292;-81
2020/12/18 00:15:06;;;;;;;28.17;13.40;;;;;;;6.19;83.97;102889.70;1628790;88;21912;-82
2020/12/18 00:17:38;;;;;;;31.10;14.60;;;;;;;6.16;83.96;102885.40;1655557;86;21321;-83
2020/12/18 00:20:11;;;;;;;31.33;13.48;;;;;;;6.17;84.03;102889.03;1627594;88;21302;-82
2020/12/18 00:22:44;;;;;;;28.45;12.53;;;;;;;6.18;84.03;102885.23;1652776;86;21193;-81
2020/12/18 00:25:16;;;;;;;33.30;15.08;;;;;;;6.17;84.00;102892.62;1627415;88;21226;-83
2020/12/18 00:27:51;;;;;;;31.83;14.50;;;;;;;6.13;84.01;102886.28;1656248;87;21193;-83
2020/12/18 00:30:25;;;;;;;28.47;11.95;;;;;;;6.13;84.13;102884.90;1627568;88;22210;-84
2020/12/18 00:32:59;;;;;;;32.40;12.95;;;;;;;6.10;84.11;102885.27;1655934;87;21344;-84
2020/12/18 00:35:36;;;;;;;38.50;14.20;;;;;;;6.06;84.13;102887.52;1623527;88;21253;-84
2020/12/18 00:38:08;;;;;;;40.92;16.57;;;;;;;6.05;84.25;102891.29;1642614;86;21384;-84
2020/12/18 00:40:41;;;;;;;31.15;13.32;;;;;;;6.06;84.33;102878.38;1618178;88;21777;-82
2020/12/18 00:43:14;;;;;;;32.58;14.75;;;;;;;6.06;84.35;102875.62;1633247;86;21347;-84
2020/12/18 00:45:47;;;;;;;28.50;12.37;;;;;;;6.03;84.38;102881.47;1603611;88;21341;-81
2020/12/18 00:48:19;;;;;;;31.40;13.00;;;;;;;6.02;84.36;102881.13;1630752;88;21834;-81
2020/12/18 00:50:57;;;;;;;30.23;13.45;;;;;;;6.02;84.60;102877.87;1603024;88;21357;-81
2020/12/18 00:53:31;;;;;;;29.90;12.20;;;;;;;6.01;84.60;102871.15;1652900;86;21182;-82
2020/12/18 00:56:09;;;;;;;30.47;13.60;;;;;;;6.01;84.64;102870.64;1618461;87;21218;-82
2020/12/18 00:58:45;;;;;;;33.85;14.53;;;;;;;5.99;84.61;102864.97;1643622;87;21352;-82
2020/12/18 01:01:19;;;;;;;36.08;14.70;;;;;;;5.99;84.71;102868.56;1660345;86;21327;-82
2020/12/18 01:03:55;;;;;;;32.88;14.68;;;;;;;6.02;84.82;102863.22;1660489;86;21625;-82
2020/12/18 01:06:30;;;;;;;37.70;16.20;;;;;;;6.03;84.83;102862.17;1632254;88;21371;-82
2020/12/18 01:09:03;;;;;;;29.65;13.60;;;;;;;6.05;84.98;102862.34;1644232;87;21859;-83
2020/12/18 01:11:41;;;;;;;34.93;14.83;;;;;;;6.10;85.01;102861.83;1660726;86;21212;-83
2020/12/18 01:14:16;;;;;;;30.27;13.07;;;;;;;6.10;84.95;102861.29;1659989;86;21268;-83
2020/12/18 01:17:02;;;;;;;33.08;13.43;;;;;;;6.11;85.00;102863.55;1643458;87;21361;-82
2020/12/18 01:19:38;;;;;;;32.30;14.20;;;;;;;6.12;85.10;102863.87;1660049;86;21205;-82
2020/12/18 01:22:12;;;;;;;36.70;15.37;;;;;;;6.14;85.22;102864.55;1659759;86;21208;-82
2020/12/18 01:24:46;;;;;;;39.37;15.30;;;;;;;6.12;85.17;102857.83;1643226;87;21749;-83
2020/12/18 01:27:21;;;;;;;35.25;14.75;;;;;;;6.19;85.38;102856.61;1659800;86;21661;-75
2020/12/18 01:29:55;;;;;;;32.20;12.68;;;;;;;6.34;85.65;102852.08;1659954;86;21331;-75
2020/12/18 01:32:32;;;;;;;30.60;13.20;;;;;;;6.42;85.32;102858.92;1643132;87;21729;-74
2020/12/18 01:35:04;;;;;;;30.15;12.75;;;;;;;6.42;85.07;102865.82;1643173;87;21512;-73
2020/12/18 01:37:37;;;;;;;;;;;;;;;6.41;85.00;102859.97;1662376;86;21715;-74
2020/12/18 01:40:11;;;;;;;26.97;11.57;;;;;;;6.40;84.87;102856.87;1660071;86;20254;-75
2020/12/18 01:42:45;;;;;;;23.90;9.83;;;;;;;6.35;84.80;102856.02;1643067;87;21217;-74
2020/12/18 01:45:18;;;;;;;27.40;12.23;;;;;;;6.29;84.68;102858.64;1659917;86;21265;-75
2020/12/18 01:48:02;;;;;;;35.78;14.63;;;;;;;6.26;84.82;102855.72;1659135;86;21744;-75
2020/12/18 01:50:36;;;;;;;32.80;13.43;;;;;;;6.23;84.79;102851.92;1659790;86;21234;-75
2020/12/18 01:53:11;;;;;;;31.27;14.00;;;;;;;6.29;85.03;102852.59;1659972;86;21335;-75
2020/12/18 01:55:50;;;;;;;28.85;13.48;;;;;;;6.35;84.85;102857.93;1655793;86;21199;-75
2020/12/18 01:58:23;;;;;;;;;;;;;;;6.45;84.94;102862.69;1659628;86;21256;-74
2020/12/18 02:00:56;;;;;;;35.52;13.93;;;;;;;6.58;84.99;102851.92;1656767;86;20516;-74
2020/12/18 02:03:32;;;;;;;39.65;15.20;;;;;;;6.69;84.81;102855.66;1653196;86;21208;-75
2020/12/18 02:06:16;;;;;;;36.15;14.15;;;;;;;6.78;84.66;102856.80;1610521;89;21238;-74
2020/12/18 02:08:50;;;;;;;31.82;13.08;;;;;;;6.87;84.38;102856.22;1655050;85;21748;-75
2020/12/18 02:11:28;;;;;;;31.17;14.15;;;;;;;6.86;83.98;102859.52;1608985;89;21460;-74
2020/12/18 02:14:02;;;;;;;34.70;13.13;;;;;;;6.86;83.72;102860.91;1643213;86;21248;-75
2020/12/18 02:16:35;;;;;;;34.47;14.37;;;;;;;6.91;83.74;102856.20;1664237;86;21232;-73
2020/12/18 02:19:12;;;;;;;27.70;13.45;;;;;;;6.93;83.52;102858.25;1611026;89;21338;-74
2020/12/18 02:21:45;;;;;;;28.90;13.40;;;;;;;6.87;83.20;102850.20;1664144;86;21248;-74
2020/12/18 02:24:27;;;;;;;32.67;14.43;;;;;;;6.84;83.09;102856.61;1610915;89;21341;-74
2020/12/18 02:27:01;;;;;;;30.37;13.65;;;;;;;6.83;83.20;102852.13;1643430;87;22172;-75
2020/12/18 02:29:39;;;;;;;32.70;14.03;;;;;;;6.76;83.01;102853.87;1663862;86;21719;-74
2020/12/18 02:32:13;;;;;;;25.63;11.80;;;;;;;6.71;83.22;102859.95;1610840;89;21364;-75
2020/12/18 02:34:49;;;;;;;27.90;12.78;;;;;;;6.71;83.23;102866.02;1643085;87;21347;-74
2020/12/18 02:37:26;;;;;;;29.50;13.30;;;;;;;6.73;83.25;102863.92;1664040;86;21874;-75
2020/12/18 02:40:00;;;;;;;25.53;12.27;;;;;;;6.80;83.34;102863.52;1610874;89;21429;-75
2020/12/18 02:42:35;;;;;;;25.97;12.45;;;;;;;6.84;83.17;102866.27;1663251;86;21671;-75
2020/12/18 02:45:08;;;;;;;33.23;13.10;;;;;;;6.78;82.94;102867.00;1663765;86;21261;-77
2020/12/18 02:48:04;;;;;;;29.10;13.00;;;;;;;6.79;83.08;102872.85;1663858;86;21211;-74
2020/12/18 02:50:39;;;;;;;20.92;10.38;;;;;;;6.83;83.13;102870.92;1663636;86;21200;-76
2020/12/18 02:53:19;;;;;;;;;;;;;;;6.92;83.04;102869.84;1613234;89;21773;-76
2020/12/18 02:56:07;;;;;;;30.48;12.98;;;;;;;6.84;82.58;102871.79;1654454;86;20576;-74
2020/12/18 02:58:44;;;;;;;25.30;11.63;;;;;;;6.73;82.77;102869.44;1606804;88;21361;-75
2020/12/18 03:01:23;;;;;;;26.40;11.65;;;;;;;6.69;82.87;102870.33;1643362;87;21692;-75
2020/12/18 03:03:57;;;;;;;30.30;12.88;;;;;;;6.67;82.98;102870.16;1640515;86;21240;-75
2020/12/18 03:06:43;;;;;;;28.07;11.28;;;;;;;6.65;82.87;102870.34;1663703;86;21216;-75
2020/12/18 03:09:16;;;;;;;27.22;12.00;;;;;;;6.63;83.04;102873.81;1664154;85;21195;-75
2020/12/18 03:11:49;;;;;;;23.95;11.22;;;;;;;6.56;82.99;102876.09;1664007;86;21205;-74
2020/12/18 03:14:21;;;;;;;19.15;9.35;;;;;;;6.48;83.07;102871.45;1664025;86;21196;-75
2020/12/18 03:16:57;;;;;;;25.00;11.73;;;;;;;6.42;83.08;102872.72;1661836;86;21220;-74
2020/12/18 03:19:34;;;;;;;22.87;10.03;;;;;;;6.38;83.30;102869.97;1661661;86;21203;-75
2020/12/18 03:22:11;;;;;;;23.32;10.53;;;;;;;6.35;83.35;102870.34;1647069;86;21217;-75
2020/12/18 03:24:48;;;;;;;23.90;11.70;;;;;;;6.32;83.50;102874.82;1582812;90;21289;-75
2020/12/18 03:27:26;;;;;;;27.10;10.40;;;;;;;6.33;83.56;102868.27;1639213;86;21259;-75
2020/12/18 03:30:00;;;;;;;27.57;11.20;;;;;;;6.35;83.66;102873.09;1602326;89;21467;-75
2020/12/18 03:32:33;;;;;;;21.55;10.08;;;;;;;6.34;83.62;102870.01;1630548;86;21220;-75
2020/12/18 03:35:09;;;;;;;29.90;11.85;;;;;;;6.32;83.75;102870.69;1609640;89;21360;-75
2020/12/18 03:37:43;;;;;;;24.57;9.13;;;;;;;6.29;83.70;102869.68;1664129;86;21365;-74
2020/12/18 03:40:17;;;;;;;30.45;11.50;;;;;;;6.28;83.78;102868.80;1610555;89;21204;-75
2020/12/18 03:42:52;;;;;;;23.02;10.43;;;;;;;6.28;83.79;102869.34;1656262;86;21208;-75
2020/12/18 03:45:34;;;;;;;25.55;10.48;;;;;;;6.30;83.92;102862.58;1601873;87;21411;-75
2020/12/18 03:48:08;;;;;;;23.62;10.45;;;;;;;6.27;83.74;102865.72;1636711;86;21373;-74
2020/12/18 03:50:48;;;;;;;20.97;9.83;;;;;;;6.27;83.82;102875.88;1585505;89;21287;-75
2020/12/18 03:53:22;;;;;;;20.30;9.33;;;;;;;6.25;83.82;102869.18;1636626;86;21185;-74
2020/12/18 03:55:56;;;;;;;24.98;10.13;;;;;;;6.21;83.92;102858.16;1629443;88;21383;-75
2020/12/18 03:58:31;;;;;;;24.23;10.03;;;;;;;6.19;83.93;102858.86;1621690;88;21205;-75
2020/12/18 04:01:24;;;;;;;22.13;9.10;;;;;;;6.20;83.90;102862.46;1602694;89;21238;-76
2020/12/18 04:03:57;;;;;;;24.97;9.13;;;;;;;6.17;83.83;102857.31;1630028;88;21454;-75
2020/12/18 04:06:32;;;;;;;22.93;10.80;;;;;;;6.12;83.83;102856.98;1602957;89;21222;-75
2020/12/18 04:09:04;;;;;;;21.17;8.85;;;;;;;6.13;83.88;102860.08;1637557;86;21891;-75
2020/12/18 04:11:41;;;;;;;17.73;7.12;;;;;;;6.11;83.89;102852.52;1619276;87;21491;-75
2020/12/18 04:14:30;;;;;;;21.23;8.83;;;;;;;6.07;83.75;102863.05;1638990;86;21699;-74
2020/12/18 04:17:05;;;;;;;20.52;10.60;;;;;;;6.09;83.89;102858.20;1627695;88;21808;-75
2020/12/18 04:19:38;;;;;;;16.60;7.05;;;;;;;6.08;83.75;102863.88;1634617;86;21415;-74
2020/12/18 04:22:15;;;;;;;25.40;9.63;;;;;;;6.04;83.72;102859.78;1607817;89;21279;-74
2020/12/18 04:24:55;;;;;;;19.25;7.92;;;;;;;5.97;83.63;102860.13;1654355;86;21174;-75
2020/12/18 04:27:29;;;;;;;26.85;9.63;;;;;;;6.00;83.80;102862.55;1626804;88;21737;-74
2020/12/18 04:30:05;;;;;;;22.93;10.05;;;;;;;6.01;83.92;102869.27;1654828;87;21248;-74
2020/12/18 04:32:39;;;;;;;23.32;9.33;;;;;;;6.06;83.83;102870.11;1620002;88;21416;-74
2020/12/18 04:35:12;;;;;;;21.10;8.30;;;;;;;6.10;83.67;102865.42;1654980;87;21253;-74
2020/12/18 04:38:02;;;;;;;19.77;8.67;;;;;;;6.08;83.34;102869.40;1626701;88;21278;-74
2020/12/18 04:40:41;;;;;;;22.35;9.40;;;;;;;5.99;83.04;102866.34;1650091;87;21745;-74
2020/12/18 04:43:15;;;;;;;17.85;7.85;;;;;;;5.93;83.15;102871.19;1626624;88;21361;-74
2020/12/18 04:45:52;;;;;;;15.13;7.37;;;;;;;5.94;83.18;102865.50;1654886;87;21178;-74
2020/12/18 04:48:28;;;;;;;18.52;7.97;;;;;;;5.96;83.00;102869.44;1626940;88;21369;-74
2020/12/18 04:51:01;;;;;;;20.43;9.47;;;;;;;5.92;82.70;102868.93;1655297;87;21217;-74
2020/12/18 04:53:39;;;;;;;19.98;9.60;;;;;;;5.90;82.66;102879.79;1602324;88;21405;-75
2020/12/18 04:56:19;;;;;;;17.40;7.95;;;;;;;5.91;82.76;102871.35;1655426;87;21249;-74
2020/12/18 04:58:57;;;;;;;16.53;8.23;;;;;;;5.94;82.55;102877.91;1601832;88;21360;-76
2020/12/18 05:01:31;;;;;;;19.40;8.30;;;;;;;5.87;82.29;102881.00;1649172;86;21345;-79
2020/12/18 05:04:05;;;;;;;18.30;8.60;;;;;;;5.84;82.41;102880.49;1653015;87;21302;-81
2020/12/18 05:06:43;;;;;;;18.10;9.17;;;;;;;5.81;82.27;102878.95;1634594;88;21349;-82
2020/12/18 05:09:15;;;;;;;20.60;7.83;;;;;;;5.77;82.13;102872.05;1637011;88;21392;-82
2020/12/18 05:11:52;;;;;;;16.30;7.47;;;;;;;5.68;82.06;102874.47;1655527;87;21304;-81
2020/12/18 05:14:30;;;;;;;17.75;8.80;;;;;;;5.61;82.16;102884.47;1655784;87;21348;-82
2020/12/18 05:17:09;;;;;;;10.83;5.27;;;;;;;5.57;82.27;102883.63;1654233;87;21167;-81
2020/12/18 05:19:45;;;;;;;18.33;7.93;;;;;;;5.58;82.44;102885.34;1654817;87;21319;-83
2020/12/18 05:22:17;;;;;;;19.17;8.38;;;;;;;5.61;82.45;102890.52;1634354;88;21393;-81
2020/12/18 05:25:09;;;;;;;15.17;6.73;;;;;;;5.58;82.36;102890.34;1649720;87;21339;-84
2020/12/18 05:27:43;;;;;;;17.10;7.87;;;;;;;5.56;82.31;102890.17;1646611;87;21366;-75
2020/12/18 05:30:21;;;;;;;18.20;8.38;;;;;;;5.55;82.28;102898.09;1602431;88;21285;-82
2020/12/18 05:33:06;;;;;;;16.67;7.87;;;;;;;5.56;82.27;102897.06;1601221;89;21234;-83
2020/12/18 05:35:41;;;;;;;21.10;9.33;;;;;;;5.55;82.27;102902.23;1600579;88;21856;-76
2020/12/18 05:38:19;;;;;;;21.50;9.37;;;;;;;5.54;82.41;102904.61;1623296;88;21339;-83
2020/12/18 05:41:01;;;;;;;15.53;7.63;;;;;;;5.59;82.42;102911.84;1617909;88;21223;-83
2020/12/18 05:43:42;;;;;;;23.07;10.77;;;;;;;5.59;82.49;102923.74;1626446;88;21267;-75
2020/12/18 05:46:35;;;;;;;23.87;9.53;;;;;;;5.58;82.67;102917.89;1620325;87;21273;-76
2020/12/18 05:49:13;;;;;;;30.83;11.13;;;;;;;5.62;82.68;102909.60;1648139;87;21249;-82
2020/12/18 05:51:49;;;;;;;23.13;10.43;;;;;;;5.63;82.72;102910.48;1629240;88;21388;-85
2020/12/18 05:54:37;;;;;;;24.63;10.50;;;;;;;5.73;82.83;102915.30;1648002;87;21888;-83
2020/12/18 05:57:14;;;;;;;22.63;9.40;;;;;;;5.72;82.70;102921.81;1651643;87;21336;-84
2020/12/18 05:59:58;;;;;;;19.70;8.58;;;;;;;5.69;82.59;102922.19;1614465;89;21234;-83
2020/12/18 06:02:32;;;;;;;28.17;10.87;;;;;;;5.70;82.58;102921.14;1651278;86;21395;-82
2020/12/18 06:05:07;;;;;;;23.70;11.13;;;;;;;5.72;82.66;102932.84;1654765;85;21248;-81
2020/12/18 06:07:44;;;;;;;22.17;10.43;;;;;;;5.80;82.77;102928.75;1655838;87;21852;-83
2020/12/18 06:10:25;;;;;;;22.03;9.90;;;;;;;5.81;82.45;102938.73;1655738;85;21839;-83
2020/12/18 06:13:05;;;;;;;27.50;11.40;;;;;;;5.76;82.35;102933.72;1655496;87;21411;-80
2020/12/18 06:15:49;;;;;;;;;;;;;;;5.73;82.35;102940.94;1637873;87;21219;-79
2020/12/18 06:18:25;;;;;;;26.48;10.28;;;;;;;5.83;82.26;102944.92;1655475;87;20500;-80
2020/12/18 06:20:58;;;;;;;19.02;9.13;;;;;;;5.81;82.19;102940.95;1655425;87;21851;-82
2020/12/18 06:23:32;;;;;;;14.97;8.57;;;;;;;5.80;82.12;102940.62;1655477;87;21850;-81
2020/12/18 06:26:13;;;;;;;22.27;9.20;;;;;;;5.76;82.08;102936.98;1651606;87;21261;-83
2020/12/18 06:29:06;;;;;;;20.40;8.70;;;;;;;5.73;82.16;102938.73;1655438;87;21802;-84
2020/12/18 06:31:40;;;;;;;19.90;9.17;;;;;;;5.72;82.14;102935.09;1650530;86;21756;-84
2020/12/18 06:34:30;;;;;;;18.70;8.03;;;;;;;5.73;82.08;102931.30;1656604;86;21244;-83
2020/12/18 06:37:07;;;;;;;17.12;7.50;;;;;;;5.73;82.18;102940.11;1652956;86;21693;-84
2020/12/18 06:39:42;;;;;;;15.20;6.53;;;;;;;5.81;82.23;102945.63;1654752;86;21240;-84
2020/12/18 06:42:20;;;;;;;13.77;7.37;;;;;;;5.82;82.05;102933.06;1653127;86;21684;-85
2020/12/18 06:45:08;;;;;;;14.63;6.83;;;;;;;5.80;82.01;102936.48;1653034;86;21696;-84
2020/12/18 06:47:42;;;;;;;19.73;7.53;;;;;;;5.85;82.06;102940.09;1626739;85;21201;-83
2020/12/18 06:50:36;;;;;;;14.60;7.17;;;;;;;5.85;82.18;102944.22;1656843;86;21606;-84
2020/12/18 06:53:09;;;;;;;14.50;7.43;;;;;;;5.83;82.09;102951.31;1656640;86;21185;-84
2020/12/18 06:55:44;;;;;;;16.10;8.00;;;;;;;5.81;82.01;102953.90;1631066;86;21268;-84
2020/12/18 06:58:28;;;;;;;14.85;6.28;;;;;;;5.77;82.14;102944.21;1653069;86;21212;-85
2020/12/18 07:01:02;;;;;;;16.33;7.43;;;;;;;5.79;82.17;102946.27;1656818;86;21252;-84
2020/12/18 07:03:43;;;;;;;13.72;7.20;;;;;;;5.81;82.28;102948.38;1656666;86;21196;-83
2020/12/18 07:06:31;;;;;;;16.80;8.05;;;;;;;5.80;82.23;102950.27;1656818;86;21208;-82
2020/12/18 07:09:03;;;;;;;17.03;7.70;;;;;;;5.81;82.22;102948.38;1657075;86;21682;-82
2020/12/18 07:11:41;;;;;;;17.53;8.27;;;;;;;5.80;82.31;102946.67;1656911;86;21217;-83
2020/12/18 07:14:16;;;;;;;13.32;7.30;;;;;;;5.80;82.37;102948.05;1656997;86;21367;-83
2020/12/18 07:16:56;;;;;;;16.70;7.67;;;;;;;5.80;82.38;102954.94;1631003;86;21204;-85
2020/12/18 07:19:31;;;;;;;12.82;7.55;;;;;;;5.76;82.33;102945.25;1657021;85;21212;-83
2020/12/18 07:22:15;;;;;;;16.95;8.78;;;;;;;5.77;82.39;102951.10;1656642;86;21192;-85
2020/12/18 07:24:47;;;;;;;15.60;8.37;;;;;;;5.79;82.52;102951.27;1657240;86;21190;-85
2020/12/18 07:27:20;;;;;;;12.73;6.72;;;;;;;5.88;82.49;102953.54;1657454;86;21200;-86
2020/12/18 07:29:55;;;;;;;15.65;7.97;;;;;;;5.94;82.44;102960.61;1657522;85;21201;-85
2020/12/18 07:32:30;;;;;;;22.13;7.70;;;;;;;5.98;82.10;102955.61;1657241;86;21819;-82
2020/12/18 07:35:11;;;;;;;19.13;7.70;;;;;;;5.97;82.15;102951.09;1657290;86;21347;-85
2020/12/18 07:37:44;;;;;;;24.00;10.33;;;;;;;5.98;82.17;102956.45;1657008;86;21201;-85
2020/12/18 07:40:18;;;;;;;22.73;9.17;;;;;;;6.03;82.15;102964.19;1657272;86;21264;-85
2020/12/18 07:42:50;;;;;;;;;;;;;;;6.13;82.08;102961.60;1659537;86;21915;-84
2020/12/18 07:45:26;;;;;;;18.43;8.33;;;;;;;6.16;81.79;102959.02;1656625;86;20199;-83
2020/12/18 07:47:59;;;;;;;19.70;8.77;;;;;;;6.15;81.82;102954.51;1653723;86;21340;-83
2020/12/18 07:50:31;;;;;;;27.15;9.05;;;;;;;6.19;81.87;102960.91;1606785;88;21320;-84
2020/12/18 07:53:15;;;;;;;24.95;9.85;;;;;;;6.28;81.68;102957.06;1630496;88;21448;-84
2020/12/18 07:56:07;;;;;;;13.47;7.10;;;;;;;6.30;81.63;102962.42;1630405;88;21882;-83
2020/12/18 07:58:54;;;;;;;16.80;8.03;;;;;;;6.38;81.58;102954.11;1630251;87;21193;-84
2020/12/18 08:01:30;;;;;;;15.10;7.42;;;;;;;6.38;81.19;102951.34;1630602;88;21217;-85
2020/12/18 08:04:05;;;;;;;17.55;8.08;;;;;;;6.36;81.19;102954.27;1630416;88;21271;-85
2020/12/18 08:06:38;;;;;;;15.50;7.50;;;;;;;6.35;81.12;102950.34;1630210;88;21841;-83
2020/12/18 08:09:16;;;;;;;13.18;6.53;;;;;;;6.32;81.02;102954.31;1630378;88;21347;-83
2020/12/18 08:11:52;;;;;;;14.05;6.72;;;;;;;6.40;81.00;102957.03;1629923;88;21216;-86
2020/12/18 08:14:25;;;;;;;14.73;7.50;;;;;;;6.43;80.86;102959.45;1647141;85;21214;-82
2020/12/18 08:16:59;;;;;;;18.35;7.03;;;;;;;6.41;80.60;102952.39;1675195;85;21706;-81
2020/12/18 08:19:31;;;;;;;13.20;7.43;;;;;;;6.36;80.50;102963.93;1683219;85;21665;-82
2020/12/18 08:22:05;;;;;;;18.10;7.87;;;;;;;6.34;80.53;102963.80;1657476;85;21245;-84
2020/12/18 08:24:38;;;;;;;13.32;7.35;;;;;;;6.37;80.45;102962.92;1656827;86;21228;-81
2020/12/18 08:27:26;;;;;;;15.88;7.87;;;;;;;6.33;80.43;102960.67;1653769;86;21193;-81
2020/12/18 08:29:58;;;;;;;9.50;6.03;;;;;;;6.36;80.44;102960.33;1657249;85;21234;-82
2020/12/18 08:32:32;;;;;;;14.47;6.83;;;;;;;6.41;80.37;102953.23;1627634;86;21529;-76
2020/12/18 08:35:07;;;;;;;15.90;7.70;;;;;;;6.44;80.24;102954.78;1656213;86;21728;-78
2020/12/18 08:37:40;;;;;;;12.70;6.60;;;;;;;6.52;80.23;102960.25;1656259;86;21188;-79
2020/12/18 08:40:23;;;;;;;13.60;6.80;;;;;;;6.52;79.97;102956.99;1656390;86;21280;-78
2020/12/18 08:43:04;;;;;;;14.65;7.45;;;;;;;6.47;79.83;102954.44;1654585;85;21520;-79
2020/12/18 08:45:45;;;;;;;12.63;7.58;;;;;;;6.38;79.85;102952.22;1656753;86;21189;-78
2020/12/18 08:48:26;;;;;;;12.25;5.50;;;;;;;6.36;80.25;102954.81;1671202;85;21691;-79
2020/12/18 08:51:02;;;;;;;18.45;8.08;;;;;;;6.45;80.41;102953.73;1686995;85;21281;-78
2020/12/18 08:53:36;;;;;;;13.08;7.50;;;;;;;6.54;80.25;102960.95;1685429;85;21314;-78
2020/12/18 08:56:10;;;;;;;13.90;6.53;;;;;;;6.54;79.88;102956.81;1645152;86;21289;-77
2020/12/18 08:58:43;;;;;;;15.53;7.12;;;;;;;6.52;79.77;102965.77;1652728;86;21272;-76
2020/12/18 09:01:25;;;;;;;19.48;8.50;;;;;;;6.52;79.71;102951.98;1655074;86;21230;-77
2020/12/18 09:03:59;;;;;;;14.95;7.85;;;;;;;6.56;79.77;102950.59;1654089;86;21200;-77
2020/12/18 09:06:32;;;;;;;12.03;6.72;;;;;;;6.63;79.66;102953.84;1654710;86;21771;-77
2020/12/18 09:09:06;;;;;;;18.55;7.58;;;;;;;6.62;79.40;102951.26;1652834;86;21609;-76
2020/12/18 09:11:40;;;;;;;14.50;7.33;;;;;;;6.64;79.43;102945.03;1654217;86;21230;-76
2020/12/18 09:14:31;;;;;;;13.83;6.65;;;;;;;6.72;79.46;102947.23;1654424;86;21350;-79
2020/12/18 09:17:05;;;;;;;12.93;7.05;;;;;;;6.77;79.18;102946.18;1652050;86;21273;-77
2020/12/18 09:19:48;;;;;;;13.68;7.12;;;;;;;6.72;78.91;102940.88;1654753;86;21201;-76
2020/12/18 09:22:20;;;;;;;13.62;7.47;;;;;;;6.65;78.80;102936.58;1651420;86;21721;-76
2020/12/18 09:25:04;;;;;;;14.13;6.97;;;;;;;6.56;78.83;102938.17;1653393;86;21208;-75
2020/12/18 09:27:37;;;;;;;14.43;7.87;;;;;;;6.50;79.11;102931.48;1655254;85;21193;-75
2020/12/18 09:30:09;;;;;;;12.30;7.30;;;;;;;6.45;79.17;102946.33;1655679;86;21197;-77
2020/12/18 09:32:43;;;;;;;11.35;7.05;;;;;;;6.45;79.38;102935.80;1656272;86;21268;-77
2020/12/18 09:35:16;;;;;;;13.67;7.47;;;;;;;6.47;79.36;102930.98;1648442;86;21260;-85
2020/12/18 09:37:49;;;;;;;15.73;7.40;;;;;;;6.46;79.42;102923.72;1650594;86;21245;-78
2020/12/18 09:40:22;;;;;;;17.52;7.92;;;;;;;6.46;79.47;102926.48;1637419;87;21824;-79
2020/12/18 09:42:55;;;;;;;15.13;7.87;;;;;;;6.51;79.73;102927.68;1663391;86;21192;-80
2020/12/18 09:45:30;;;;;;;15.72;8.15;;;;;;;6.63;79.66;102925.37;1607735;89;21332;-83
2020/12/18 09:48:02;;;;;;;13.88;7.05;;;;;;;6.74;79.39;102924.98;1656677;86;21249;-83
2020/12/18 09:50:35;;;;;;;10.58;5.85;;;;;;;6.76;78.99;102927.03;1608129;89;21757;-83
2020/12/18 09:53:08;;;;;;;10.90;6.87;;;;;;;6.71;78.79;102922.05;1656549;86;21256;-85
2020/12/18 09:55:40;;;;;;;14.03;7.72;;;;;;;6.69;78.87;102922.77;1610905;89;21239;-86
2020/12/18 09:58:13;;;;;;;13.90;7.87;;;;;;;6.72;78.92;102921.02;1656539;86;21189;-86
2020/12/18 10:00:46;;;;;;;16.47;7.63;;;;;;;6.75;78.87;102920.66;1610613;89;21219;-86
2020/12/18 10:03:22;;;;;;;12.53;7.15;;;;;;;6.78;78.74;102919.45;1656804;86;21209;-83
2020/12/18 10:06:02;;;;;;;12.53;6.50;;;;;;;6.75;78.62;102917.03;1621672;87;21416;-80
2020/12/18 10:08:35;;;;;;;15.48;7.92;;;;;;;6.66;78.67;102916.21;1603761;89;21694;-83
2020/12/18 10:11:08;;;;;;;;;;;;;;;6.66;79.01;102916.21;1620357;89;21221;-82
2020/12/18 10:13:41;;;;;;;15.83;8.45;;;;;;;6.77;79.07;102913.59;1632431;86;20202;-80
2020/12/18 10:16:16;;;;;;;19.37;9.57;;;;;;;6.88;79.05;102910.40;1627706;88;21221;-75
2020/12/18 10:18:49;;;;;;;15.63;8.28;;;;;;;6.92;78.84;102904.86;1631495;88;21265;-79
2020/12/18 10:21:22;;;;;;;;;;;;;;;6.92;78.53;102915.91;1631798;88;21229;-82
2020/12/18 10:23:55;;;;;;;13.15;7.20;;;;;;;6.88;78.21;102902.98;1629745;88;20234;-82
2020/12/18 10:26:28;;;;;;;18.12;8.98;;;;;;;6.85;78.17;102902.49;1635967;86;21843;-79
2020/12/18 10:29:02;;;;;;;18.20;10.07;;;;;;;6.76;78.10;102904.44;1634791;86;21234;-83
2020/12/18 10:31:36;;;;;;;18.32;9.38;;;;;;;6.70;78.25;102904.28;1629728;88;21210;-82
2020/12/18 10:34:09;;;;;;;17.67;7.97;;;;;;;6.66;78.44;102898.81;1627461;88;21246;-80
2020/12/18 10:36:42;;;;;;;20.35;8.80;;;;;;;6.66;78.63;102900.19;1627604;88;21317;-84
2020/12/18 10:39:14;;;;;;;17.90;8.93;;;;;;;6.65;78.70;102895.72;1627906;88;21238;-78
2020/12/18 10:41:47;;;;;;;15.88;7.97;;;;;;;6.64;78.66;102893.97;1628733;88;21285;-87
2020/12/18 10:44:20;;;;;;;17.40;9.18;;;;;;;6.60;78.83;102889.88;1629245;88;21293;-85
2020/12/18 10:46:53;;;;;;;21.75;9.65;;;;;;;6.54;78.83;102891.44;1629732;88;21234;-84
2020/12/18 10:49:29;;;;;;;17.45;8.43;;;;;;;6.44;79.16;102892.70;1630934;88;21350;-83
2020/12/18 10:52:02;;;;;;;23.83;9.57;;;;;;;6.40;79.30;102881.16;1629427;88;21733;-77
2020/12/18 10:54:34;;;;;;;22.70;10.13;;;;;;;6.34;79.48;102879.66;1627485;88;21215;-76
2020/12/18 10:57:10;;;;;;;23.22;10.38;;;;;;;6.31;79.65;102878.63;1630020;88;21347;-82
2020/12/18 10:59:43;;;;;;;23.10;9.53;;;;;;;6.30;79.80;102882.42;1629491;88;21234;-75
2020/12/18 11:02:16;;;;;;;22.17;10.35;;;;;;;6.37;80.01;102876.53;1629644;88;21348;-75
2020/12/18 11:04:48;;;;;;;22.25;10.50;;;;;;;6.50;80.02;102880.95;1629365;88;21268;-75
2020/12/18 11:07:21;;;;;;;25.33;11.37;;;;;;;6.61;79.79;102873.65;1629528;87;21238;-77
2020/12/18 11:09:54;;;;;;;21.82;10.38;;;;;;;6.64;79.54;102877.41;1622668;85;24423;-75
2020/12/18 11:12:27;;;;;;;27.22;11.18;;;;;;;6.65;79.37;102870.34;1626879;88;21235;-75
2020/12/18 11:15:00;;;;;;;27.53;11.83;;;;;;;6.62;79.19;102867.95;1628531;88;21249;-75
2020/12/18 11:17:33;;;;;;;19.92;10.00;;;;;;;6.66;79.45;102868.45;1630275;86;21257;-83
2020/12/18 11:20:06;;;;;;;20.60;9.63;;;;;;;6.73;78.94;102867.52;1628408;88;21705;-84
2020/12/18 11:22:39;;;;;;;21.90;10.20;;;;;;;6.73;78.94;102867.52;1631691;88;21890;-84
2020/12/18 11:25:11;;;;;;;22.57;9.47;;;;;;;6.68;79.04;102864.47;1629576;87;21212;-85
2020/12/18 11:27:44;;;;;;;26.90;10.53;;;;;;;6.60;79.11;102867.80;1693633;85;21452;-82
2020/12/18 11:30:16;;;;;;;24.85;11.68;;;;;;;6.56;79.38;102876.09;1693152;85;21396;-84
2020/12/18 11:32:49;;;;;;;19.23;10.70;;;;;;;6.56;79.58;102869.19;1692697;85;21253;-83
2020/12/18 11:35:23;;;;;;;18.48;9.45;;;;;;;6.54;79.52;102876.25;1692579;85;21264;-83
2020/12/18 11:38:02;;;;;;;24.63;10.65;;;;;;;6.51;79.68;102872.49;1674532;85;21249;-83
2020/12/18 11:40:35;;;;;;;25.08;10.95;;;;;;;6.55;79.83;102878.00;1637783;87;21401;-83
2020/12/18 11:43:12;;;;;;;23.67;10.98;;;;;;;6.66;79.88;102872.59;1637669;87;21391;-83
2020/12/18 11:45:45;;;;;;;22.13;10.35;;;;;;;6.72;79.62;102867.19;1637872;87;21337;-83
2020/12/18 11:48:18;;;;;;;25.52;11.48;;;;;;;6.73;79.50;102872.20;1637982;87;21203;-84
2020/12/18 11:50:51;;;;;;;22.95;11.03;;;;;;;6.70;79.47;102876.69;1638330;87;21256;-83
2020/12/18 11:53:24;;;;;;;18.73;9.20;;;;;;;6.73;79.72;102881.86;1656300;85;21217;-83
2020/12/18 11:55:56;;;;;;;22.77;10.43;;;;;;;6.79;79.61;102882.52;1664739;86;21953;-85
2020/12/18 11:58:29;;;;;;;27.42;13.30;;;;;;;6.74;79.51;102878.05;1665254;86;21357;-84
2020/12/18 12:01:02;;;;;;;21.37;10.43;;;;;;;6.71;79.50;102882.03;1665007;86;21355;-85
2020/12/18 12:03:35;;;;;;;25.00;11.55;;;;;;;6.72;79.44;102880.14;1664913;85;21383;-85
2020/12/18 12:06:10;;;;;;;23.73;11.80;;;;;;;6.74;79.42;102875.30;1664813;85;21339;-86